KENL/ENL METAR and TAF weather

Enter ICAO airport designator
Station Type Date Time Source
KENL METAR 2019/02/20 18:15 UTC NOAA

KENL 201815Z AUTO 23007KT 1 1/2SM BR OVC004 06/06 A2979 RMK AO2 T00550055


Station Type Date Time Source
KENL Decoded METAR 2019/02/20 18:15 UTC NOAA

Centralia, Centralia Municipal Airport, IL, United States (KENL) 38-30-53N 089-05-32W
Feb 20, 2019 - 01:15 PM EST / 2019.02.20 1815 UTC
Wind: from the SW (230 degrees) at 8 MPH (7 KT):0
Visibility: 1 1/2 mile(s):0
Sky conditions: overcast
Weather: mist
Temperature: 41.9 F (5.5 C)
Dew Point: 41.9 F (5.5 C)
Relative Humidity: 100%
Pressure (altimeter): 29.79 in. Hg (1008 hPa)
ob: KENL 201815Z AUTO 23007KT 1 1/2SM BR OVC004 06/06 A2979 RMK AO2 T00550055
cycle: 18

Station Type Date Time Source
KENL TAF UTC NOAA

Error!


Example: see airport list